sensor_id;sensor_type;location;lat;lon;timestamp;P1;durP1;ratioP1;P2;durP2;ratioP2
10874;SDS011;5490;52.200;8.786;2023-04-09T00:01:32;18.57;;;9.63;;
10874;SDS011;5490;52.200;8.786;2023-04-09T00:03:58;21.77;;;11.57;;
10874;SDS011;5490;52.200;8.786;2023-04-09T00:06:27;20.23;;;11.10;;
10874;SDS011;5490;52.200;8.786;2023-04-09T00:08:53;21.80;;;10.33;;
10874;SDS011;5490;52.200;8.786;2023-04-09T00:11:20;20.77;;;10.00;;
10874;SDS011;5490;52.200;8.786;2023-04-09T00:13:47;25.13;;;11.43;;
10874;SDS011;5490;52.200;8.786;2023-04-09T00:16:13;26.20;;;12.50;;
10874;SDS011;5490;52.200;8.786;2023-04-09T00:18:40;21.30;;;10.43;;
10874;SDS011;5490;52.200;8.786;2023-04-09T00:21:07;23.00;;;12.67;;
10874;SDS011;5490;52.200;8.786;2023-04-09T00:23:35;21.70;;;11.30;;
10874;SDS011;5490;52.200;8.786;2023-04-09T00:26:01;25.60;;;11.60;;
10874;SDS011;5490;52.200;8.786;2023-04-09T00:28:28;23.60;;;11.67;;
10874;SDS011;5490;52.200;8.786;2023-04-09T00:30:55;24.57;;;12.07;;
10874;SDS011;5490;52.200;8.786;2023-04-09T00:33:22;32.80;;;13.27;;
10874;SDS011;5490;52.200;8.786;2023-04-09T00:35:48;23.33;;;9.93;;
10874;SDS011;5490;52.200;8.786;2023-04-09T00:38:15;24.03;;;10.97;;
10874;SDS011;5490;52.200;8.786;2023-04-09T00:40:47;28.30;;;12.63;;
10874;SDS011;5490;52.200;8.786;2023-04-09T00:43:13;18.37;;;10.60;;
10874;SDS011;5490;52.200;8.786;2023-04-09T00:45:40;19.47;;;10.07;;
10874;SDS011;5490;52.200;8.786;2023-04-09T00:48:07;22.70;;;11.60;;
10874;SDS011;5490;52.200;8.786;2023-04-09T00:50:34;19.73;;;11.43;;
10874;SDS011;5490;52.200;8.786;2023-04-09T00:53:01;26.37;;;11.20;;
10874;SDS011;5490;52.200;8.786;2023-04-09T00:55:27;20.23;;;11.07;;
10874;SDS011;5490;52.200;8.786;2023-04-09T00:57:57;24.93;;;11.37;;
10874;SDS011;5490;52.200;8.786;2023-04-09T01:00:23;21.00;;;11.03;;
10874;SDS011;5490;52.200;8.786;2023-04-09T01:02:52;23.10;;;10.23;;
10874;SDS011;5490;52.200;8.786;2023-04-09T01:05:21;28.43;;;13.20;;
10874;SDS011;5490;52.200;8.786;2023-04-09T01:07:52;23.97;;;11.57;;
10874;SDS011;5490;52.200;8.786;2023-04-09T01:10:27;25.53;;;11.17;;
10874;SDS011;5490;52.200;8.786;2023-04-09T01:13:06;26.93;;;11.70;;
10874;SDS011;5490;52.200;8.786;2023-04-09T01:15:36;22.97;;;12.63;;
10874;SDS011;5490;52.200;8.786;2023-04-09T01:18:06;21.73;;;12.13;;
10874;SDS011;5490;52.200;8.786;2023-04-09T01:20:38;22.77;;;12.60;;
10874;SDS011;5490;52.200;8.786;2023-04-09T01:23:10;28.60;;;12.87;;
10874;SDS011;5490;52.200;8.786;2023-04-09T01:25:43;22.83;;;11.93;;
10874;SDS011;5490;52.200;8.786;2023-04-09T01:28:20;23.27;;;13.03;;
10874;SDS011;5490;52.200;8.786;2023-04-09T01:30:49;24.43;;;12.97;;
10874;SDS011;5490;52.200;8.786;2023-04-09T01:33:18;23.13;;;12.73;;
10874;SDS011;5490;52.200;8.786;2023-04-09T01:35:47;26.13;;;12.83;;
10874;SDS011;5490;52.200;8.786;2023-04-09T01:38:15;31.33;;;12.77;;
10874;SDS011;5490;52.200;8.786;2023-04-09T01:40:44;23.97;;;12.43;;
10874;SDS011;5490;52.200;8.786;2023-04-09T01:43:12;26.20;;;11.17;;
10874;SDS011;5490;52.200;8.786;2023-04-09T01:45:41;21.50;;;10.97;;
10874;SDS011;5490;52.200;8.786;2023-04-09T01:48:08;24.77;;;12.73;;
10874;SDS011;5490;52.200;8.786;2023-04-09T01:50:36;28.13;;;12.20;;
10874;SDS011;5490;52.200;8.786;2023-04-09T01:53:03;25.57;;;11.23;;
10874;SDS011;5490;52.200;8.786;2023-04-09T01:55:30;24.10;;;11.10;;
10874;SDS011;5490;52.200;8.786;2023-04-09T01:57:56;21.07;;;10.33;;
10874;SDS011;5490;52.200;8.786;2023-04-09T02:00:23;23.23;;;10.90;;
10874;SDS011;5490;52.200;8.786;2023-04-09T02:02:58;22.57;;;11.47;;
10874;SDS011;5490;52.200;8.786;2023-04-09T02:05:30;23.93;;;11.80;;
10874;SDS011;5490;52.200;8.786;2023-04-09T02:08:02;34.00;;;13.37;;
10874;SDS011;5490;52.200;8.786;2023-04-09T02:10:31;31.97;;;13.53;;
10874;SDS011;5490;52.200;8.786;2023-04-09T02:13:01;23.90;;;11.37;;
10874;SDS011;5490;52.200;8.786;2023-04-09T02:15:31;28.40;;;12.40;;
10874;SDS011;5490;52.200;8.786;2023-04-09T02:18:01;18.97;;;9.50;;
10874;SDS011;5490;52.200;8.786;2023-04-09T02:20:28;23.37;;;11.90;;
10874;SDS011;5490;52.200;8.786;2023-04-09T02:22:55;20.43;;;10.13;;
10874;SDS011;5490;52.200;8.786;2023-04-09T02:25:22;20.57;;;10.40;;
10874;SDS011;5490;52.200;8.786;2023-04-09T02:27:49;21.47;;;11.87;;
10874;SDS011;5490;52.200;8.786;2023-04-09T02:30:16;19.53;;;11.37;;
10874;SDS011;5490;52.200;8.786;2023-04-09T02:32:43;19.50;;;9.10;;
10874;SDS011;5490;52.200;8.786;2023-04-09T02:35:11;18.57;;;10.17;;
10874;SDS011;5490;52.200;8.786;2023-04-09T02:37:39;25.37;;;11.97;;
10874;SDS011;5490;52.200;8.786;2023-04-09T02:40:06;27.10;;;11.43;;
10874;SDS011;5490;52.200;8.786;2023-04-09T02:42:33;26.87;;;12.73;;
10874;SDS011;5490;52.200;8.786;2023-04-09T02:45:00;24.83;;;10.27;;
10874;SDS011;5490;52.200;8.786;2023-04-09T02:47:27;18.27;;;10.23;;
10874;SDS011;5490;52.200;8.786;2023-04-09T02:49:54;19.07;;;9.87;;
10874;SDS011;5490;52.200;8.786;2023-04-09T02:52:22;24.77;;;9.07;;
10874;SDS011;5490;52.200;8.786;2023-04-09T02:54:50;20.53;;;9.27;;
10874;SDS011;5490;52.200;8.786;2023-04-09T02:57:17;21.17;;;10.43;;
10874;SDS011;5490;52.200;8.786;2023-04-09T02:59:45;19.77;;;9.10;;
10874;SDS011;5490;52.200;8.786;2023-04-09T03:02:11;25.30;;;10.30;;
10874;SDS011;5490;52.200;8.786;2023-04-09T03:04:38;23.80;;;11.60;;
10874;SDS011;5490;52.200;8.786;2023-04-09T03:07:05;18.57;;;9.87;;
10874;SDS011;5490;52.200;8.786;2023-04-09T03:09:33;20.23;;;10.50;;
10874;SDS011;5490;52.200;8.786;2023-04-09T03:12:00;23.73;;;10.70;;
10874;SDS011;5490;52.200;8.786;2023-04-09T03:14:27;18.27;;;10.00;;
10874;SDS011;5490;52.200;8.786;2023-04-09T03:16:53;21.17;;;10.80;;
10874;SDS011;5490;52.200;8.786;2023-04-09T03:19:20;18.53;;;11.20;;
10874;SDS011;5490;52.200;8.786;2023-04-09T03:21:47;22.20;;;10.23;;
10874;SDS011;5490;52.200;8.786;2023-04-09T03:24:15;23.20;;;10.70;;
10874;SDS011;5490;52.200;8.786;2023-04-09T03:26:43;18.47;;;10.53;;
10874;SDS011;5490;52.200;8.786;2023-04-09T03:29:10;18.03;;;9.83;;
10874;SDS011;5490;52.200;8.786;2023-04-09T03:31:37;24.20;;;10.93;;
10874;SDS011;5490;52.200;8.786;2023-04-09T03:34:04;19.90;;;10.43;;
10874;SDS011;5490;52.200;8.786;2023-04-09T03:36:30;20.90;;;10.87;;
10874;SDS011;5490;52.200;8.786;2023-04-09T03:38:57;20.27;;;10.37;;
10874;SDS011;5490;52.200;8.786;2023-04-09T03:41:25;20.90;;;10.93;;
10874;SDS011;5490;52.200;8.786;2023-04-09T03:43:53;24.33;;;11.90;;
10874;SDS011;5490;52.200;8.786;2023-04-09T03:46:20;18.60;;;9.23;;
10874;SDS011;5490;52.200;8.786;2023-04-09T03:48:46;20.37;;;10.50;;
10874;SDS011;5490;52.200;8.786;2023-04-09T03:51:13;22.97;;;10.23;;
10874;SDS011;5490;52.200;8.786;2023-04-09T03:53:41;18.17;;;10.17;;
10874;SDS011;5490;52.200;8.786;2023-04-09T03:56:08;25.53;;;11.63;;
10874;SDS011;5490;52.200;8.786;2023-04-09T03:58:35;23.83;;;10.27;;
10874;SDS011;5490;52.200;8.786;2023-04-09T04:01:03;22.07;;;10.80;;
10874;SDS011;5490;52.200;8.786;2023-04-09T04:03:30;21.20;;;10.67;;
10874;SDS011;5490;52.200;8.786;2023-04-09T04:05:58;19.13;;;10.03;;
10874;SDS011;5490;52.200;8.786;2023-04-09T04:08:26;17.07;;;9.67;;
10874;SDS011;5490;52.200;8.786;2023-04-09T04:10:52;20.17;;;9.67;;
10874;SDS011;5490;52.200;8.786;2023-04-09T04:13:19;20.20;;;11.00;;
10874;SDS011;5490;52.200;8.786;2023-04-09T04:15:46;20.37;;;11.57;;
10874;SDS011;5490;52.200;8.786;2023-04-09T04:18:14;22.60;;;11.10;;
10874;SDS011;5490;52.200;8.786;2023-04-09T04:20:41;19.53;;;10.20;;
10874;SDS011;5490;52.200;8.786;2023-04-09T04:23:07;18.70;;;9.17;;
10874;SDS011;5490;52.200;8.786;2023-04-09T04:25:34;20.30;;;9.17;;
10874;SDS011;5490;52.200;8.786;2023-04-09T04:28:01;19.40;;;9.50;;
10874;SDS011;5490;52.200;8.786;2023-04-09T04:30:27;17.20;;;10.10;;
10874;SDS011;5490;52.200;8.786;2023-04-09T04:32:54;20.30;;;9.60;;
10874;SDS011;5490;52.200;8.786;2023-04-09T04:35:22;16.37;;;8.83;;
10874;SDS011;5490;52.200;8.786;2023-04-09T04:37:49;17.70;;;9.73;;
10874;SDS011;5490;52.200;8.786;2023-04-09T04:40:16;20.87;;;11.20;;
10874;SDS011;5490;52.200;8.786;2023-04-09T04:42:42;21.03;;;9.70;;
10874;SDS011;5490;52.200;8.786;2023-04-09T04:45:09;17.20;;;9.30;;
10874;SDS011;5490;52.200;8.786;2023-04-09T04:47:36;24.37;;;10.27;;
10874;SDS011;5490;52.200;8.786;2023-04-09T04:50:03;17.37;;;8.97;;
10874;SDS011;5490;52.200;8.786;2023-04-09T04:52:32;19.60;;;8.70;;
10874;SDS011;5490;52.200;8.786;2023-04-09T04:54:59;18.13;;;10.50;;
10874;SDS011;5490;52.200;8.786;2023-04-09T04:57:26;15.90;;;8.53;;
10874;SDS011;5490;52.200;8.786;2023-04-09T04:59:52;18.00;;;9.53;;
10874;SDS011;5490;52.200;8.786;2023-04-09T05:02:19;16.63;;;9.50;;
10874;SDS011;5490;52.200;8.786;2023-04-09T05:04:45;18.80;;;9.30;;
10874;SDS011;5490;52.200;8.786;2023-04-09T05:07:12;18.40;;;9.43;;
10874;SDS011;5490;52.200;8.786;2023-04-09T05:09:41;20.97;;;9.03;;
10874;SDS011;5490;52.200;8.786;2023-04-09T05:12:08;18.90;;;9.63;;
10874;SDS011;5490;52.200;8.786;2023-04-09T05:14:35;19.83;;;9.83;;
10874;SDS011;5490;52.200;8.786;2023-04-09T05:17:01;16.03;;;8.87;;
10874;SDS011;5490;52.200;8.786;2023-04-09T05:19:28;19.60;;;9.97;;
10874;SDS011;5490;52.200;8.786;2023-04-09T05:21:55;16.23;;;8.93;;
10874;SDS011;5490;52.200;8.786;2023-04-09T05:24:22;20.60;;;10.33;;
10874;SDS011;5490;52.200;8.786;2023-04-09T05:26:50;20.30;;;9.77;;
10874;SDS011;5490;52.200;8.786;2023-04-09T05:29:16;22.47;;;10.67;;
10874;SDS011;5490;52.200;8.786;2023-04-09T05:31:43;22.73;;;10.80;;
10874;SDS011;5490;52.200;8.786;2023-04-09T05:34:10;32.93;;;15.27;;
10874;SDS011;5490;52.200;8.786;2023-04-09T05:36:36;30.73;;;13.03;;
10874;SDS011;5490;52.200;8.786;2023-04-09T05:39:03;27.47;;;12.73;;
10874;SDS011;5490;52.200;8.786;2023-04-09T05:41:30;31.67;;;15.00;;
10874;SDS011;5490;52.200;8.786;2023-04-09T05:43:58;30.73;;;13.43;;
10874;SDS011;5490;52.200;8.786;2023-04-09T05:46:25;34.37;;;13.33;;
10874;SDS011;5490;52.200;8.786;2023-04-09T05:48:53;34.43;;;13.07;;
10874;SDS011;5490;52.200;8.786;2023-04-09T05:51:19;32.93;;;12.80;;
10874;SDS011;5490;52.200;8.786;2023-04-09T05:53:46;30.83;;;14.20;;
10874;SDS011;5490;52.200;8.786;2023-04-09T05:56:13;29.40;;;12.53;;
10874;SDS011;5490;52.200;8.786;2023-04-09T05:58:41;28.10;;;12.33;;
10874;SDS011;5490;52.200;8.786;2023-04-09T06:01:09;31.10;;;12.70;;
10874;SDS011;5490;52.200;8.786;2023-04-09T06:03:36;25.80;;;12.57;;
10874;SDS011;5490;52.200;8.786;2023-04-09T06:06:03;29.90;;;12.20;;
10874;SDS011;5490;52.200;8.786;2023-04-09T06:08:30;27.33;;;13.00;;
10874;SDS011;5490;52.200;8.786;2023-04-09T06:10:57;27.20;;;12.90;;
10874;SDS011;5490;52.200;8.786;2023-04-09T06:13:23;19.83;;;10.47;;
10874;SDS011;5490;52.200;8.786;2023-04-09T06:15:50;22.70;;;11.33;;
10874;SDS011;5490;52.200;8.786;2023-04-09T06:18:18;30.73;;;13.93;;
10874;SDS011;5490;52.200;8.786;2023-04-09T06:20:45;26.00;;;11.20;;
10874;SDS011;5490;52.200;8.786;2023-04-09T06:23:12;21.83;;;11.70;;
10874;SDS011;5490;52.200;8.786;2023-04-09T06:25:38;27.10;;;12.37;;
10874;SDS011;5490;52.200;8.786;2023-04-09T06:28:05;23.27;;;11.90;;
10874;SDS011;5490;52.200;8.786;2023-04-09T06:30:32;26.23;;;11.87;;
10874;SDS011;5490;52.200;8.786;2023-04-09T06:33:00;28.47;;;11.90;;
10874;SDS011;5490;52.200;8.786;2023-04-09T06:35:36;29.27;;;13.00;;
10874;SDS011;5490;52.200;8.786;2023-04-09T06:38:04;21.17;;;10.73;;
10874;SDS011;5490;52.200;8.786;2023-04-09T06:40:41;22.57;;;10.33;;
10874;SDS011;5490;52.200;8.786;2023-04-09T06:43:08;22.23;;;11.40;;
10874;SDS011;5490;52.200;8.786;2023-04-09T06:45:35;23.50;;;10.80;;
10874;SDS011;5490;52.200;8.786;2023-04-09T06:48:02;24.30;;;11.60;;
10874;SDS011;5490;52.200;8.786;2023-04-09T06:50:31;23.90;;;11.63;;
10874;SDS011;5490;52.200;8.786;2023-04-09T06:52:59;31.03;;;12.83;;
10874;SDS011;5490;52.200;8.786;2023-04-09T06:55:26;27.90;;;13.30;;
10874;SDS011;5490;52.200;8.786;2023-04-09T06:57:53;23.57;;;11.00;;
10874;SDS011;5490;52.200;8.786;2023-04-09T07:00:19;18.80;;;10.87;;
10874;SDS011;5490;52.200;8.786;2023-04-09T07:02:47;26.67;;;11.43;;
10874;SDS011;5490;52.200;8.786;2023-04-09T07:05:14;27.57;;;12.20;;
10874;SDS011;5490;52.200;8.786;2023-04-09T07:07:41;28.47;;;12.43;;
10874;SDS011;5490;52.200;8.786;2023-04-09T07:10:09;23.87;;;12.27;;
10874;SDS011;5490;52.200;8.786;2023-04-09T07:12:36;26.97;;;13.40;;
10874;SDS011;5490;52.200;8.786;2023-04-09T07:15:03;26.67;;;12.87;;
10874;SDS011;5490;52.200;8.786;2023-04-09T07:17:34;29.23;;;12.93;;
10874;SDS011;5490;52.200;8.786;2023-04-09T07:20:01;22.90;;;11.83;;
10874;SDS011;5490;52.200;8.786;2023-04-09T07:22:32;25.00;;;11.20;;
10874;SDS011;5490;52.200;8.786;2023-04-09T07:25:00;22.30;;;11.20;;
10874;SDS011;5490;52.200;8.786;2023-04-09T07:27:28;16.87;;;10.47;;
10874;SDS011;5490;52.200;8.786;2023-04-09T07:29:56;21.50;;;10.33;;
10874;SDS011;5490;52.200;8.786;2023-04-09T07:32:24;27.73;;;11.90;;
10874;SDS011;5490;52.200;8.786;2023-04-09T07:34:53;19.63;;;10.87;;
10874;SDS011;5490;52.200;8.786;2023-04-09T07:37:21;24.03;;;11.10;;
10874;SDS011;5490;52.200;8.786;2023-04-09T07:39:48;23.93;;;10.63;;
10874;SDS011;5490;52.200;8.786;2023-04-09T07:42:15;20.13;;;11.23;;
10874;SDS011;5490;52.200;8.786;2023-04-09T07:44:43;19.63;;;10.57;;
10874;SDS011;5490;52.200;8.786;2023-04-09T07:47:11;18.07;;;10.30;;
10874;SDS011;5490;52.200;8.786;2023-04-09T07:49:38;23.17;;;10.67;;
10874;SDS011;5490;52.200;8.786;2023-04-09T07:52:05;17.57;;;10.60;;
10874;SDS011;5490;52.200;8.786;2023-04-09T07:54:32;22.60;;;10.67;;
10874;SDS011;5490;52.200;8.786;2023-04-09T07:57:00;22.57;;;10.77;;
10874;SDS011;5490;52.200;8.786;2023-04-09T07:59:27;20.23;;;11.23;;
10874;SDS011;5490;52.200;8.786;2023-04-09T08:01:56;19.27;;;10.43;;
10874;SDS011;5490;52.200;8.786;2023-04-09T08:04:23;18.47;;;9.40;;
10874;SDS011;5490;52.200;8.786;2023-04-09T08:06:51;22.23;;;11.77;;
10874;SDS011;5490;52.200;8.786;2023-04-09T08:09:18;20.90;;;10.03;;
10874;SDS011;5490;52.200;8.786;2023-04-09T08:11:45;16.90;;;10.33;;
10874;SDS011;5490;52.200;8.786;2023-04-09T08:14:13;17.57;;;10.50;;
10874;SDS011;5490;52.200;8.786;2023-04-09T08:16:42;19.53;;;9.40;;
10874;SDS011;5490;52.200;8.786;2023-04-09T08:19:11;24.17;;;11.77;;
10874;SDS011;5490;52.200;8.786;2023-04-09T08:21:38;18.83;;;10.13;;
10874;SDS011;5490;52.200;8.786;2023-04-09T08:24:07;20.80;;;11.03;;
10874;SDS011;5490;52.200;8.786;2023-04-09T08:26:35;27.53;;;11.37;;
10874;SDS011;5490;52.200;8.786;2023-04-09T08:29:02;21.40;;;10.90;;
10874;SDS011;5490;52.200;8.786;2023-04-09T08:31:29;20.50;;;11.03;;
10874;SDS011;5490;52.200;8.786;2023-04-09T08:34:01;18.43;;;9.33;;
10874;SDS011;5490;52.200;8.786;2023-04-09T08:36:29;18.07;;;11.07;;
10874;SDS011;5490;52.200;8.786;2023-04-09T08:38:58;22.57;;;13.03;;
10874;SDS011;5490;52.200;8.786;2023-04-09T08:41:29;19.00;;;10.90;;
10874;SDS011;5490;52.200;8.786;2023-04-09T08:43:59;20.77;;;10.37;;
10874;SDS011;5490;52.200;8.786;2023-04-09T08:46:27;23.13;;;10.93;;
10874;SDS011;5490;52.200;8.786;2023-04-09T08:48:54;19.23;;;10.90;;
10874;SDS011;5490;52.200;8.786;2023-04-09T08:51:23;18.53;;;10.50;;
10874;SDS011;5490;52.200;8.786;2023-04-09T08:53:57;19.27;;;9.37;;
10874;SDS011;5490;52.200;8.786;2023-04-09T08:56:27;15.03;;;8.97;;
10874;SDS011;5490;52.200;8.786;2023-04-09T08:58:57;17.23;;;9.77;;
10874;SDS011;5490;52.200;8.786;2023-04-09T09:01:24;17.23;;;9.73;;
10874;SDS011;5490;52.200;8.786;2023-04-09T09:03:55;16.33;;;10.00;;
10874;SDS011;5490;52.200;8.786;2023-04-09T09:06:27;17.23;;;9.37;;
10874;SDS011;5490;52.200;8.786;2023-04-09T09:09:04;16.53;;;10.53;;
10874;SDS011;5490;52.200;8.786;2023-04-09T09:11:32;19.70;;;10.77;;
10874;SDS011;5490;52.200;8.786;2023-04-09T09:14:03;19.30;;;9.30;;
10874;SDS011;5490;52.200;8.786;2023-04-09T09:16:37;12.57;;;8.02;;
10874;SDS011;5490;52.200;8.786;2023-04-09T09:19:07;19.67;;;10.15;;
10874;SDS011;5490;52.200;8.786;2023-04-09T09:21:36;18.77;;;10.40;;
10874;SDS011;5490;52.200;8.786;2023-04-09T09:24:15;15.32;;;8.77;;
10874;SDS011;5490;52.200;8.786;2023-04-09T09:26:42;14.93;;;9.45;;
10874;SDS011;5490;52.200;8.786;2023-04-09T09:29:13;16.77;;;10.02;;
10874;SDS011;5490;52.200;8.786;2023-04-09T09:31:46;16.55;;;10.10;;
10874;SDS011;5490;52.200;8.786;2023-04-09T09:34:15;20.33;;;9.95;;
10874;SDS011;5490;52.200;8.786;2023-04-09T09:36:42;15.15;;;8.93;;
10874;SDS011;5490;52.200;8.786;2023-04-09T09:39:11;16.25;;;9.23;;
10874;SDS011;5490;52.200;8.786;2023-04-09T09:41:41;17.35;;;9.23;;
10874;SDS011;5490;52.200;8.786;2023-04-09T09:44:09;17.52;;;10.30;;
10874;SDS011;5490;52.200;8.786;2023-04-09T09:46:37;12.60;;;7.55;;
10874;SDS011;5490;52.200;8.786;2023-04-09T09:49:05;18.33;;;8.93;;
10874;SDS011;5490;52.200;8.786;2023-04-09T09:51:34;16.92;;;10.00;;
10874;SDS011;5490;52.200;8.786;2023-04-09T09:54:04;13.50;;;8.75;;
10874;SDS011;5490;52.200;8.786;2023-04-09T09:56:34;16.98;;;10.20;;
10874;SDS011;5490;52.200;8.786;2023-04-09T09:59:09;20.30;;;9.40;;
10874;SDS011;5490;52.200;8.786;2023-04-09T10:01:45;15.10;;;9.43;;
10874;SDS011;5490;52.200;8.786;2023-04-09T10:04:14;16.40;;;9.48;;
10874;SDS011;5490;52.200;8.786;2023-04-09T10:06:41;17.33;;;9.15;;
10874;SDS011;5490;52.200;8.786;2023-04-09T10:09:10;15.98;;;8.70;;
10874;SDS011;5490;52.200;8.786;2023-04-09T10:11:39;16.15;;;9.23;;
10874;SDS011;5490;52.200;8.786;2023-04-09T10:14:09;17.83;;;9.43;;
10874;SDS011;5490;52.200;8.786;2023-04-09T10:16:37;16.35;;;9.00;;
10874;SDS011;5490;52.200;8.786;2023-04-09T10:19:04;18.92;;;10.15;;
10874;SDS011;5490;52.200;8.786;2023-04-09T10:21:35;16.20;;;9.65;;
10874;SDS011;5490;52.200;8.786;2023-04-09T10:24:07;17.65;;;9.38;;
10874;SDS011;5490;52.200;8.786;2023-04-09T10:26:34;16.65;;;8.70;;
10874;SDS011;5490;52.200;8.786;2023-04-09T10:29:07;15.25;;;10.10;;
10874;SDS011;5490;52.200;8.786;2023-04-09T10:31:44;12.73;;;7.60;;
10874;SDS011;5490;52.200;8.786;2023-04-09T10:34:13;14.65;;;8.40;;
10874;SDS011;5490;52.200;8.786;2023-04-09T10:36:41;14.80;;;8.25;;
10874;SDS011;5490;52.200;8.786;2023-04-09T10:39:10;15.98;;;8.05;;
10874;SDS011;5490;52.200;8.786;2023-04-09T10:41:37;14.10;;;7.97;;
10874;SDS011;5490;52.200;8.786;2023-04-09T10:44:09;13.82;;;6.97;;
10874;SDS011;5490;52.200;8.786;2023-04-09T10:46:46;13.13;;;7.40;;
10874;SDS011;5490;52.200;8.786;2023-04-09T10:49:14;13.88;;;7.30;;
10874;SDS011;5490;52.200;8.786;2023-04-09T10:51:47;11.15;;;7.28;;
10874;SDS011;5490;52.200;8.786;2023-04-09T10:57:09;9.07;;;5.18;;
10874;SDS011;5490;52.200;8.786;2023-04-09T10:59:39;10.45;;;5.35;;
10874;SDS011;5490;52.200;8.786;2023-04-09T11:02:07;12.65;;;4.93;;
10874;SDS011;5490;52.200;8.786;2023-04-09T11:04:40;8.48;;;4.88;;
10874;SDS011;5490;52.200;8.786;2023-04-09T11:07:17;8.75;;;4.32;;
10874;SDS011;5490;52.200;8.786;2023-04-09T11:09:47;12.48;;;5.45;;
10874;SDS011;5490;52.200;8.786;2023-04-09T11:12:13;6.68;;;4.15;;
10874;SDS011;5490;52.200;8.786;2023-04-09T11:14:41;7.80;;;5.38;;
10874;SDS011;5490;52.200;8.786;2023-04-09T11:17:09;6.82;;;4.88;;
10874;SDS011;5490;52.200;8.786;2023-04-09T11:19:35;7.53;;;4.53;;
10874;SDS011;5490;52.200;8.786;2023-04-09T11:22:02;10.13;;;5.75;;
10874;SDS011;5490;52.200;8.786;2023-04-09T11:24:38;9.85;;;4.32;;
10874;SDS011;5490;52.200;8.786;2023-04-09T11:27:06;7.18;;;4.57;;
10874;SDS011;5490;52.200;8.786;2023-04-09T11:29:33;8.43;;;4.85;;
10874;SDS011;5490;52.200;8.786;2023-04-09T11:32:01;7.30;;;4.35;;
10874;SDS011;5490;52.200;8.786;2023-04-09T11:34:29;11.43;;;4.20;;
10874;SDS011;5490;52.200;8.786;2023-04-09T11:36:55;9.07;;;5.00;;
10874;SDS011;5490;52.200;8.786;2023-04-09T11:39:23;8.15;;;4.50;;
10874;SDS011;5490;52.200;8.786;2023-04-09T11:41:50;7.93;;;4.70;;
10874;SDS011;5490;52.200;8.786;2023-04-09T11:44:19;10.02;;;5.25;;
10874;SDS011;5490;52.200;8.786;2023-04-09T11:46:46;17.05;;;4.88;;
10874;SDS011;5490;52.200;8.786;2023-04-09T11:49:15;6.78;;;4.00;;
10874;SDS011;5490;52.200;8.786;2023-04-09T11:51:42;7.40;;;4.40;;
10874;SDS011;5490;52.200;8.786;2023-04-09T11:54:09;8.20;;;3.97;;
10874;SDS011;5490;52.200;8.786;2023-04-09T11:56:37;5.05;;;3.28;;
10874;SDS011;5490;52.200;8.786;2023-04-09T11:59:04;7.18;;;4.05;;
10874;SDS011;5490;52.200;8.786;2023-04-09T12:01:30;6.57;;;4.00;;
10874;SDS011;5490;52.200;8.786;2023-04-09T12:03:58;8.55;;;4.35;;
10874;SDS011;5490;52.200;8.786;2023-04-09T12:06:26;6.65;;;4.03;;
10874;SDS011;5490;52.200;8.786;2023-04-09T12:08:54;6.88;;;4.28;;
10874;SDS011;5490;52.200;8.786;2023-04-09T12:11:26;6.45;;;4.07;;
10874;SDS011;5490;52.200;8.786;2023-04-09T12:13:57;6.28;;;4.13;;
10874;SDS011;5490;52.200;8.786;2023-04-09T12:16:25;7.78;;;4.78;;
10874;SDS011;5490;52.200;8.786;2023-04-09T12:18:52;6.65;;;4.35;;
10874;SDS011;5490;52.200;8.786;2023-04-09T12:21:22;7.78;;;4.82;;
10874;SDS011;5490;52.200;8.786;2023-04-09T12:23:51;7.07;;;4.22;;
10874;SDS011;5490;52.200;8.786;2023-04-09T12:26:18;12.57;;;4.85;;
10874;SDS011;5490;52.200;8.786;2023-04-09T12:28:45;6.07;;;4.78;;
10874;SDS011;5490;52.200;8.786;2023-04-09T12:31:11;7.18;;;3.90;;
10874;SDS011;5490;52.200;8.786;2023-04-09T12:33:38;8.40;;;4.72;;
10874;SDS011;5490;52.200;8.786;2023-04-09T12:36:05;5.25;;;3.90;;
10874;SDS011;5490;52.200;8.786;2023-04-09T12:38:32;6.70;;;4.50;;
10874;SDS011;5490;52.200;8.786;2023-04-09T12:41:00;7.47;;;4.45;;
10874;SDS011;5490;52.200;8.786;2023-04-09T12:43:27;8.43;;;4.57;;
10874;SDS011;5490;52.200;8.786;2023-04-09T12:45:53;8.95;;;4.82;;
10874;SDS011;5490;52.200;8.786;2023-04-09T12:48:20;10.40;;;4.10;;
10874;SDS011;5490;52.200;8.786;2023-04-09T12:50:47;8.38;;;5.35;;
10874;SDS011;5490;52.200;8.786;2023-04-09T12:53:13;6.40;;;4.75;;
10874;SDS011;5490;52.200;8.786;2023-04-09T12:55:40;9.20;;;5.40;;
10874;SDS011;5490;52.200;8.786;2023-04-09T12:58:08;8.32;;;4.95;;
10874;SDS011;5490;52.200;8.786;2023-04-09T13:00:35;7.55;;;5.15;;
10874;SDS011;5490;52.200;8.786;2023-04-09T13:03:02;7.65;;;5.03;;
10874;SDS011;5490;52.200;8.786;2023-04-09T13:05:28;6.35;;;4.10;;
10874;SDS011;5490;52.200;8.786;2023-04-09T13:07:56;7.00;;;4.55;;
10874;SDS011;5490;52.200;8.786;2023-04-09T13:10:23;8.35;;;4.13;;
10874;SDS011;5490;52.200;8.786;2023-04-09T13:12:50;8.77;;;5.20;;
10874;SDS011;5490;52.200;8.786;2023-04-09T13:15:18;8.38;;;4.07;;
10874;SDS011;5490;52.200;8.786;2023-04-09T13:17:46;7.43;;;4.50;;
10874;SDS011;5490;52.200;8.786;2023-04-09T13:20:12;10.20;;;4.90;;
10874;SDS011;5490;52.200;8.786;2023-04-09T13:22:39;8.32;;;5.07;;
10874;SDS011;5490;52.200;8.786;2023-04-09T13:25:06;9.00;;;4.82;;
10874;SDS011;5490;52.200;8.786;2023-04-09T13:27:33;9.55;;;5.00;;
10874;SDS011;5490;52.200;8.786;2023-04-09T13:30:00;7.65;;;5.45;;
10874;SDS011;5490;52.200;8.786;2023-04-09T13:32:29;9.00;;;5.30;;
10874;SDS011;5490;52.200;8.786;2023-04-09T13:34:55;7.97;;;4.25;;
10874;SDS011;5490;52.200;8.786;2023-04-09T13:37:22;7.88;;;4.40;;
10874;SDS011;5490;52.200;8.786;2023-04-09T13:39:50;7.32;;;4.57;;
10874;SDS011;5490;52.200;8.786;2023-04-09T13:42:16;6.10;;;4.10;;
10874;SDS011;5490;52.200;8.786;2023-04-09T13:44:44;8.15;;;4.70;;
10874;SDS011;5490;52.200;8.786;2023-04-09T13:47:10;8.02;;;5.47;;
10874;SDS011;5490;52.200;8.786;2023-04-09T13:49:39;8.70;;;4.72;;
10874;SDS011;5490;52.200;8.786;2023-04-09T13:52:06;6.95;;;4.75;;
10874;SDS011;5490;52.200;8.786;2023-04-09T13:54:33;7.60;;;5.25;;
10874;SDS011;5490;52.200;8.786;2023-04-09T13:57:00;10.15;;;6.40;;
10874;SDS011;5490;52.200;8.786;2023-04-09T13:59:26;10.50;;;5.25;;
10874;SDS011;5490;52.200;8.786;2023-04-09T14:01:53;10.10;;;6.03;;
10874;SDS011;5490;52.200;8.786;2023-04-09T14:04:20;9.02;;;5.63;;
10874;SDS011;5490;52.200;8.786;2023-04-09T14:06:49;8.73;;;5.07;;
10874;SDS011;5490;52.200;8.786;2023-04-09T14:09:16;9.27;;;5.18;;
10874;SDS011;5490;52.200;8.786;2023-04-09T14:11:42;9.00;;;5.88;;
10874;SDS011;5490;52.200;8.786;2023-04-09T14:14:09;9.30;;;5.10;;
10874;SDS011;5490;52.200;8.786;2023-04-09T14:16:36;10.60;;;6.63;;
10874;SDS011;5490;52.200;8.786;2023-04-09T14:19:03;10.52;;;6.43;;
10874;SDS011;5490;52.200;8.786;2023-04-09T14:21:30;7.68;;;4.72;;
10874;SDS011;5490;52.200;8.786;2023-04-09T14:23:58;10.52;;;5.22;;
10874;SDS011;5490;52.200;8.786;2023-04-09T14:26:25;7.95;;;5.38;;
10874;SDS011;5490;52.200;8.786;2023-04-09T14:28:53;9.68;;;5.50;;
10874;SDS011;5490;52.200;8.786;2023-04-09T14:31:19;8.73;;;5.38;;
10874;SDS011;5490;52.200;8.786;2023-04-09T14:33:46;11.52;;;5.80;;
10874;SDS011;5490;52.200;8.786;2023-04-09T14:36:13;9.30;;;5.63;;
10874;SDS011;5490;52.200;8.786;2023-04-09T14:38:40;6.68;;;5.05;;
10874;SDS011;5490;52.200;8.786;2023-04-09T14:41:08;16.88;;;6.93;;
10874;SDS011;5490;52.200;8.786;2023-04-09T14:43:35;8.07;;;4.97;;
10874;SDS011;5490;52.200;8.786;2023-04-09T14:46:02;8.90;;;5.60;;
10874;SDS011;5490;52.200;8.786;2023-04-09T14:48:30;9.95;;;5.70;;
10874;SDS011;5490;52.200;8.786;2023-04-09T14:50:57;9.50;;;5.25;;